createdAt,value
2016-08-04T00:00:10.257Z,18.39
2016-08-04T00:01:10.987Z,18.27
2016-08-04T00:02:10.291Z,18.37
2016-08-04T00:03:11.732Z,18.39
2016-08-04T00:04:11.767Z,18.36
2016-08-04T00:05:11.070Z,18.28
2016-08-04T00:06:11.802Z,18.3
2016-08-04T00:07:11.113Z,18.33
2016-08-04T00:08:11.238Z,18.3
2016-08-04T00:09:11.872Z,18.36
2016-08-04T00:10:11.177Z,18.27
2016-08-04T00:11:11.949Z,18.26
2016-08-04T00:12:11.344Z,18.28
2016-08-04T00:13:11.242Z,18.28
2016-08-04T00:14:10.560Z,18.3
2016-08-04T00:15:11.295Z,18.26
2016-08-04T00:16:11.315Z,18.24
2016-08-04T00:17:11.340Z,18.42
2016-08-04T00:18:10.642Z,18.43
2016-08-04T00:19:11.458Z,18.37
2016-08-04T00:20:11.393Z,18.49
2016-08-04T00:21:11.423Z,18.49
2016-08-04T00:22:11.451Z,18.6
2016-08-04T00:23:12.263Z,18.63
2016-08-04T00:24:12.212Z,18.64
2016-08-04T00:25:11.527Z,18.64
2016-08-04T00:26:10.821Z,18.64
2016-08-04T00:27:12.253Z,18.57
2016-08-04T00:28:12.291Z,18.61
2016-08-04T00:29:12.324Z,18.6
2016-08-04T00:30:12.332Z,18.6
2016-08-04T00:31:12.351Z,18.61
2016-08-04T00:32:11.785Z,18.64
2016-08-04T00:33:11.696Z,18.61
2016-08-04T00:34:12.424Z,18.73
2016-08-04T00:35:12.443Z,18.7
2016-08-04T00:36:12.450Z,18.67
2016-08-04T00:37:12.482Z,18.73
2016-08-04T00:38:12.512Z,18.6
2016-08-04T00:39:11.122Z,18.63
2016-08-04T00:40:12.544Z,18.61
2016-08-04T00:41:12.558Z,18.52
2016-08-04T00:42:11.187Z,18.46
2016-08-04T00:43:12.001Z,18.39
2016-08-04T00:44:11.922Z,18.33
2016-08-04T00:45:12.659Z,18.33
2016-08-04T00:46:12.673Z,18.16
2016-08-04T00:47:11.299Z,18.12
2016-08-04T00:48:12.721Z,18.15
2016-08-04T00:49:11.322Z,18.06
2016-08-04T00:50:12.062Z,17.98
2016-08-04T00:51:12.201Z,17.94
2016-08-04T00:52:11.400Z,17.87
2016-08-04T00:53:12.852Z,17.8
2016-08-04T00:54:11.445Z,17.82
2016-08-04T00:55:12.888Z,17.79
2016-08-04T00:56:12.895Z,17.79
2016-08-04T00:57:12.230Z,17.8
2016-08-04T00:58:12.318Z,17.69
2016-08-04T00:59:12.960Z,17.57
2016-08-04T01:00:11.573Z,17.63
2016-08-04T01:01:13.010Z,17.59
2016-08-04T01:02:13.161Z,17.65
2016-08-04T01:03:13.062Z,17.71
2016-08-04T01:04:11.665Z,17.8
2016-08-04T01:05:12.477Z,17.79
2016-08-04T01:06:11.704Z,17.86
2016-08-04T01:07:11.731Z,17.84
2016-08-04T01:08:13.158Z,17.87
2016-08-04T01:09:12.599Z,17.9
2016-08-04T01:10:12.474Z,17.9
2016-08-04T01:11:12.580Z,17.87
2016-08-04T01:12:12.532Z,17.78
2016-08-04T01:13:12.545Z,17.82
2016-08-04T01:14:13.300Z,17.69
2016-08-04T01:15:13.308Z,17.69
2016-08-04T01:16:13.350Z,17.6
2016-08-04T01:17:13.356Z,17.59
2016-08-04T01:18:12.704Z,17.53
2016-08-04T01:19:13.399Z,17.53
2016-08-04T01:20:13.420Z,17.42
2016-08-04T01:21:13.452Z,17.39
2016-08-04T01:22:12.763Z,17.37
2016-08-04T01:23:12.772Z,17.34
2016-08-04T01:24:12.096Z,17.32
2016-08-04T01:25:12.830Z,17.32
2016-08-04T01:26:13.542Z,17.27
2016-08-04T01:27:12.872Z,17.24
2016-08-04T01:28:13.612Z,17.31
2016-08-04T01:29:13.601Z,17.16
2016-08-04T01:30:13.641Z,17.19
2016-08-04T01:31:12.235Z,17.22
2016-08-04T01:32:13.675Z,17.17
2016-08-04T01:33:13.101Z,17.13
2016-08-04T01:34:13.023Z,17.1
2016-08-04T01:35:13.051Z,17.04
2016-08-04T01:36:13.758Z,17.12
2016-08-04T01:37:13.800Z,17.05
2016-08-04T01:38:13.100Z,16.94
2016-08-04T01:39:13.122Z,16.99
2016-08-04T01:40:13.843Z,17.02
2016-08-04T01:41:13.947Z,16.92
2016-08-04T01:42:13.891Z,16.94
2016-08-04T01:43:13.201Z,16.82
2016-08-04T01:44:13.299Z,16.83
2016-08-04T01:45:13.333Z,16.89
2016-08-04T01:46:12.642Z,16.84
2016-08-04T01:47:13.299Z,16.8
2016-08-04T01:48:14.074Z,16.77
2016-08-04T01:49:14.038Z,16.79
2016-08-04T01:50:13.432Z,16.79
2016-08-04T01:51:13.421Z,16.69
2016-08-04T01:52:12.700Z,16.68
2016-08-04T01:53:13.418Z,16.68
2016-08-04T01:54:13.431Z,16.66
2016-08-04T01:55:14.168Z,16.55
2016-08-04T01:56:13.587Z,16.55
2016-08-04T01:57:14.218Z,16.59
2016-08-04T01:58:13.519Z,16.51
2016-08-04T01:59:13.551Z,16.62
2016-08-04T02:00:13.561Z,16.49
2016-08-04T02:01:14.388Z,16.58
2016-08-04T02:02:13.596Z,16.46
2016-08-04T02:03:14.426Z,16.46
2016-08-04T02:04:12.935Z,16.47
2016-08-04T02:05:14.892Z,16.44
2016-08-04T02:06:14.393Z,16.43
2016-08-04T02:07:13.707Z,16.47
2016-08-04T02:08:13.748Z,16.43
2016-08-04T02:09:14.454Z,16.47
2016-08-04T02:10:13.772Z,16.49
2016-08-04T02:11:14.482Z,16.58
2016-08-04T02:12:13.821Z,16.59
2016-08-04T02:13:13.852Z,16.55
2016-08-04T02:14:13.836Z,16.59
2016-08-04T02:15:13.877Z,16.65
2016-08-04T02:16:13.180Z,16.65
2016-08-04T02:17:14.623Z,16.68
2016-08-04T02:18:14.646Z,16.65
2016-08-04T02:19:13.961Z,16.61
2016-08-04T02:21:14.103Z,16.68
2016-08-04T02:22:13.308Z,16.62
2016-08-04T02:23:14.755Z,16.65
2016-08-04T02:24:14.777Z,16.73
2016-08-04T02:25:13.373Z,16.64
2016-08-04T02:26:13.402Z,16.64
2016-08-04T02:27:13.420Z,16.62
2016-08-04T02:28:14.236Z,16.66
2016-08-04T02:29:14.179Z,16.57
2016-08-04T02:30:13.491Z,16.59
2016-08-04T02:31:14.902Z,16.54
2016-08-04T02:32:14.932Z,16.54
2016-08-04T02:33:14.969Z,16.47
2016-08-04T02:34:14.287Z,16.43
2016-08-04T02:36:13.600Z,16.36
2016-08-04T02:37:14.337Z,16.47
2016-08-04T02:38:14.363Z,16.29
2016-08-04T02:39:14.381Z,16.32
2016-08-04T02:40:14.404Z,16.31
2016-08-04T02:41:15.112Z,16.28
2016-08-04T02:42:14.439Z,16.26
2016-08-04T02:43:15.191Z,16.26
2016-08-04T02:44:14.494Z,16.32
2016-08-04T02:45:14.581Z,16.24
2016-08-04T02:46:14.525Z,16.25
2016-08-04T02:47:14.559Z,16.26
2016-08-04T02:48:15.263Z,16.18
2016-08-04T02:49:15.399Z,16.28
2016-08-04T02:51:14.687Z,16.31
2016-08-04T02:52:15.349Z,16.31
2016-08-04T02:53:15.478Z,16.28
2016-08-04T02:54:14.785Z,16.32
2016-08-04T02:55:14.712Z,16.32
2016-08-04T02:56:15.431Z,16.36
2016-08-04T02:57:15.451Z,16.29
2016-08-04T02:58:15.549Z,16.34
2016-08-04T02:59:15.483Z,16.28
2016-08-04T03:00:15.548Z,16.36
2016-08-04T03:01:15.535Z,16.39
2016-08-04T03:02:15.558Z,16.31
2016-08-04T03:03:14.268Z,16.34
2016-08-04T03:04:15.609Z,16.32
2016-08-04T03:05:14.920Z,16.21
2016-08-04T03:06:14.933Z,16.24
2016-08-04T03:07:14.945Z,16.18
2016-08-04T03:08:14.968Z,16.18
2016-08-04T03:09:15.124Z,16.21
2016-08-04T03:10:15.742Z,16.17
2016-08-04T03:11:15.831Z,16.22
2016-08-04T03:12:15.764Z,16.21
2016-08-04T03:13:15.131Z,16.18
2016-08-04T03:14:14.398Z,16.17
2016-08-04T03:15:15.821Z,16.26
2016-08-04T03:16:15.846Z,16.24
2016-08-04T03:17:15.962Z,16.29
2016-08-04T03:18:15.312Z,16.28
2016-08-04T03:19:15.201Z,16.32
2016-08-04T03:20:15.232Z,16.25
2016-08-04T03:21:15.942Z,16.29
2016-08-04T03:22:15.299Z,16.39
2016-08-04T03:23:15.291Z,16.44
2016-08-04T03:24:16.137Z,16.43
2016-08-04T03:25:15.331Z,16.47
2016-08-04T03:26:16.108Z,16.5
2016-08-04T03:27:14.673Z,16.43
2016-08-04T03:28:16.105Z,16.47
2016-08-04T03:29:16.107Z,16.5
2016-08-04T03:30:15.427Z,16.47
2016-08-04T03:31:15.444Z,16.58
2016-08-04T03:32:16.193Z,16.49
2016-08-04T03:33:16.194Z,16.58
2016-08-04T03:34:16.223Z,16.49
2016-08-04T03:35:16.237Z,16.49
2016-08-04T03:36:14.931Z,16.49
2016-08-04T03:37:16.279Z,16.41
2016-08-04T03:38:15.738Z,16.44
2016-08-04T03:39:14.913Z,16.41
2016-08-04T03:40:16.334Z,16.34
2016-08-04T03:41:16.365Z,16.31
2016-08-04T03:42:16.391Z,16.29
2016-08-04T03:43:15.752Z,16.28
2016-08-04T03:44:16.424Z,16.26
2016-08-04T03:45:16.461Z,16.21
2016-08-04T03:46:16.473Z,16.21
2016-08-04T03:47:15.781Z,16.16
2016-08-04T03:48:15.963Z,16.21
2016-08-04T03:49:15.834Z,16.22
2016-08-04T03:50:16.596Z,16.22
2016-08-04T03:51:15.921Z,16.24
2016-08-04T03:52:16.673Z,16.26
2016-08-04T03:53:15.921Z,16.34
2016-08-04T03:54:15.931Z,16.39
2016-08-04T03:55:15.946Z,16.39
2016-08-04T03:56:15.961Z,16.43
2016-08-04T03:57:15.983Z,16.44
2016-08-04T03:58:15.302Z,16.41
2016-08-04T03:59:16.092Z,16.5
2016-08-04T04:00:16.753Z,16.55
2016-08-04T04:01:15.370Z,16.61
2016-08-04T04:02:16.091Z,16.58
2016-08-04T04:03:16.831Z,16.64
2016-08-04T04:04:16.136Z,16.73
2016-08-04T04:05:16.214Z,16.74
2016-08-04T04:06:16.450Z,16.84
2016-08-04T04:07:15.501Z,16.74
2016-08-04T04:08:16.223Z,16.8
2016-08-04T04:09:15.533Z,16.89
2016-08-04T04:10:16.264Z,16.87
2016-08-04T04:11:16.272Z,16.91
2016-08-04T04:12:16.419Z,16.89
2016-08-04T04:13:17.015Z,16.91
2016-08-04T04:14:17.062Z,16.87
2016-08-04T04:15:16.372Z,16.99
2016-08-04T04:16:16.412Z,16.91
2016-08-04T04:17:17.101Z,16.87
2016-08-04T04:18:16.451Z,16.91
2016-08-04T04:19:16.451Z,16.91
2016-08-04T04:20:16.471Z,16.92
2016-08-04T04:21:16.503Z,16.83
2016-08-04T04:22:16.505Z,16.87
2016-08-04T04:23:16.592Z,16.86
2016-08-04T04:24:16.545Z,16.82
2016-08-04T04:25:17.403Z,16.77
2016-08-04T04:26:17.312Z,16.73
2016-08-04T04:27:17.371Z,16.79
2016-08-04T04:28:16.131Z,16.66
2016-08-04T04:29:17.431Z,16.66
2016-08-04T04:30:16.160Z,16.69
2016-08-04T04:31:17.450Z,16.72
2016-08-04T04:32:16.716Z,16.72
2016-08-04T04:33:16.829Z,16.68
2016-08-04T04:34:16.782Z,16.69
2016-08-04T04:35:16.771Z,16.66
2016-08-04T04:36:17.521Z,16.68
2016-08-04T04:37:17.541Z,16.73
2016-08-04T04:38:16.861Z,16.84
2016-08-04T04:39:16.880Z,16.87
2016-08-04T04:40:16.883Z,16.8
2016-08-04T04:41:17.623Z,16.98
2016-08-04T04:42:17.640Z,17.07
2016-08-04T04:43:17.651Z,17.12
2016-08-04T04:44:17.671Z,17.19
2016-08-04T04:45:17.041Z,17.24
2016-08-04T04:46:17.711Z,17.31
2016-08-04T04:47:17.026Z,17.23
2016-08-04T04:48:16.351Z,17.41
2016-08-04T04:49:17.856Z,17.44
2016-08-04T04:50:17.807Z,17.56
2016-08-04T04:51:18.014Z,17.6
2016-08-04T04:52:17.843Z,17.56
2016-08-04T04:53:17.879Z,17.57
2016-08-04T04:54:17.906Z,17.63
2016-08-04T04:55:17.232Z,17.56
2016-08-04T04:56:17.221Z,17.56
2016-08-04T04:57:17.263Z,17.52
2016-08-04T04:58:17.263Z,17.6
2016-08-04T04:59:17.300Z,17.68
2016-08-04T05:00:17.331Z,17.73
2016-08-04T05:01:17.334Z,17.79
2016-08-04T05:02:18.071Z,17.9
2016-08-04T05:03:18.110Z,18.08
2016-08-04T05:04:18.104Z,18.12
2016-08-04T05:05:17.425Z,18.15
2016-08-04T05:06:17.452Z,18.23
2016-08-04T05:07:16.744Z,18.28
2016-08-04T05:08:16.767Z,18.28
2016-08-04T05:09:18.207Z,18.31
2016-08-04T05:10:17.512Z,18.37
2016-08-04T05:11:18.261Z,18.31
2016-08-04T05:12:17.571Z,18.43
2016-08-04T05:13:17.603Z,18.43
2016-08-04T05:14:18.310Z,18.39
2016-08-04T05:15:16.972Z,18.43
2016-08-04T05:16:16.943Z,18.52
2016-08-04T05:17:16.971Z,18.61
2016-08-04T05:18:18.425Z,18.67
2016-08-04T05:19:17.710Z,18.67
2016-08-04T05:20:18.442Z,18.73
2016-08-04T05:21:18.473Z,18.91
2016-08-04T05:22:18.489Z,18.86
2016-08-04T05:23:18.532Z,18.92
2016-08-04T05:24:18.553Z,18.83
2016-08-04T05:25:18.559Z,18.89
2016-08-04T05:26:17.883Z,18.94
2016-08-04T05:27:18.608Z,18.92
2016-08-04T05:28:17.933Z,18.98
2016-08-04T05:29:18.642Z,18.97
2016-08-04T05:30:17.979Z,18.94
2016-08-04T05:31:17.994Z,18.96
2016-08-04T05:32:18.736Z,19.15
2016-08-04T05:33:18.036Z,19.15
2016-08-04T05:34:17.343Z,19.35
2016-08-04T05:35:18.081Z,19.64
2016-08-04T05:36:18.789Z,19.81
2016-08-04T05:37:17.414Z,20.08
2016-08-04T05:38:17.439Z,20.53
2016-08-04T05:39:18.271Z,20.67
2016-08-04T05:40:18.191Z,20.64
2016-08-04T05:41:18.202Z,20.63
2016-08-04T05:42:18.223Z,20.59
2016-08-04T05:43:19.008Z,20.59
2016-08-04T05:44:19.000Z,20.6
2016-08-04T05:45:17.601Z,20.63
2016-08-04T05:46:19.036Z,20.56
2016-08-04T05:47:18.362Z,20.68
2016-08-04T05:48:17.666Z,20.82
2016-08-04T05:49:18.388Z,21.08
2016-08-04T05:50:18.433Z,21.15
2016-08-04T05:51:19.311Z,21.26
2016-08-04T05:52:19.267Z,21.28
2016-08-04T05:53:19.355Z,21.14
2016-08-04T05:54:17.801Z,21.07
2016-08-04T05:55:19.388Z,21.04
2016-08-04T05:56:18.553Z,21.15
2016-08-04T05:57:19.428Z,21.07
2016-08-04T05:58:17.908Z,21.03
2016-08-04T05:59:19.406Z,20.92
2016-08-04T06:00:18.706Z,20.82
2016-08-04T06:01:17.981Z,20.64
2016-08-04T06:02:18.754Z,20.34
2016-08-04T06:03:19.591Z,20.08
2016-08-04T06:04:18.192Z,19.94
2016-08-04T06:05:19.027Z,19.78
2016-08-04T06:07:19.107Z,19.6
2016-08-04T06:08:18.959Z,19.42
2016-08-04T06:09:18.165Z,19.48
2016-08-04T06:10:19.016Z,19.53
2016-08-04T06:11:19.680Z,19.45
2016-08-04T06:12:19.743Z,19.66
2016-08-04T06:13:19.682Z,19.66
2016-08-04T06:14:19.691Z,19.64
2016-08-04T06:15:19.008Z,19.82
2016-08-04T06:16:18.312Z,19.81
2016-08-04T06:17:19.763Z,19.72
2016-08-04T06:18:18.377Z,19.79
2016-08-04T06:19:19.115Z,19.64
2016-08-04T06:20:19.142Z,19.53
2016-08-04T06:22:19.178Z,19.66
2016-08-04T06:23:19.352Z,19.71
2016-08-04T06:24:19.220Z,19.75
2016-08-04T06:25:19.243Z,19.7
2016-08-04T06:26:19.263Z,19.78
2016-08-04T06:27:19.277Z,19.84
2016-08-04T06:28:18.613Z,19.84
2016-08-04T06:29:19.333Z,19.93
2016-08-04T06:30:20.052Z,19.71
2016-08-04T06:31:18.760Z,19.78
2016-08-04T06:32:19.467Z,19.7
2016-08-04T06:33:20.140Z,19.67
2016-08-04T06:34:20.168Z,19.85
2016-08-04T06:35:20.188Z,20
2016-08-04T06:37:20.240Z,20.3
2016-08-04T06:38:18.879Z,20.27
2016-08-04T06:39:19.613Z,20.37
2016-08-04T06:40:20.295Z,20.5
2016-08-04T06:41:19.622Z,20.53
2016-08-04T06:42:19.636Z,20.6
2016-08-04T06:43:19.659Z,20.6
2016-08-04T06:44:19.689Z,20.67
2016-08-04T06:45:19.737Z,20.59
2016-08-04T06:46:20.443Z,20.63
2016-08-04T06:47:20.457Z,20.59
2016-08-04T06:48:20.493Z,20.63
2016-08-04T06:49:19.802Z,20.7
2016-08-04T06:50:20.524Z,20.67
2016-08-04T06:52:20.588Z,20.78
2016-08-04T06:53:19.906Z,20.77
2016-08-04T06:54:19.910Z,20.75
2016-08-04T06:55:20.659Z,20.82
2016-08-04T06:56:20.000Z,20.86
2016-08-04T06:57:20.703Z,20.92
2016-08-04T06:58:20.732Z,20.95
2016-08-04T06:59:20.042Z,21.2
2016-08-04T07:00:20.762Z,21.23
2016-08-04T07:01:20.791Z,21.15
2016-08-04T07:02:20.181Z,21.15
2016-08-04T07:03:20.137Z,21.13
2016-08-04T07:04:20.151Z,21.17
2016-08-04T07:05:20.900Z,21.07
2016-08-04T07:07:20.239Z,21.03
2016-08-04T07:08:20.956Z,21.01
2016-08-04T07:09:20.291Z,21.2
2016-08-04T07:10:20.320Z,21.23
2016-08-04T07:11:21.042Z,21.22
2016-08-04T07:12:20.353Z,21.28
2016-08-04T07:13:20.382Z,21.37
2016-08-04T07:14:20.423Z,21.41
2016-08-04T07:15:19.737Z,21.25
2016-08-04T07:16:21.151Z,21.25
2016-08-04T07:17:21.171Z,21.1
2016-08-04T07:18:21.203Z,21.13
2016-08-04T07:19:20.534Z,21.11
2016-08-04T07:20:20.678Z,21.03
2016-08-04T07:22:20.600Z,20.95
2016-08-04T07:23:20.603Z,20.96
2016-08-04T07:24:21.343Z,20.92
2016-08-04T07:25:21.387Z,20.89
2016-08-04T07:26:20.694Z,21.07
2016-08-04T07:27:21.443Z,21.17
2016-08-04T07:28:20.042Z,21.37
2016-08-04T07:29:20.752Z,21.44
2016-08-04T07:30:21.505Z,21.48
2016-08-04T07:31:20.172Z,21.5
2016-08-04T07:32:20.831Z,21.45
2016-08-04T07:33:20.851Z,21.33
2016-08-04T07:34:21.593Z,21.23
2016-08-04T07:35:20.920Z,21.23
2016-08-04T07:37:20.973Z,21.32
2016-08-04T07:38:21.702Z,21.23
2016-08-04T07:39:21.722Z,21.13
2016-08-04T07:40:20.443Z,21.14
2016-08-04T07:41:21.063Z,21.11
2016-08-04T07:42:21.133Z,21.19
2016-08-04T07:43:21.824Z,21.38
2016-08-04T07:44:21.172Z,21.48
2016-08-04T07:45:21.862Z,21.51
2016-08-04T07:46:21.175Z,21.83
2016-08-04T07:47:21.928Z,22.1
2016-08-04T07:48:20.522Z,22.58
2016-08-04T07:49:21.356Z,23.11
2016-08-04T07:50:21.272Z,23.66
2016-08-04T07:52:22.041Z,24
2016-08-04T07:53:22.095Z,24.04
2016-08-04T07:54:22.077Z,24.16
2016-08-04T07:55:21.401Z,24.22
2016-08-04T07:56:22.124Z,24.41
2016-08-04T07:57:22.173Z,24.68
2016-08-04T07:58:21.504Z,24.75
2016-08-04T07:59:21.503Z,24.38
2016-08-04T08:00:22.227Z,24.51
2016-08-04T08:01:22.284Z,24.55
2016-08-04T08:02:22.294Z,24.75
2016-08-04T08:03:22.322Z,25.12
2016-08-04T08:04:21.643Z,24.93
2016-08-04T08:05:21.042Z,24.81
2016-08-04T08:07:21.714Z,24.58
2016-08-04T08:08:21.745Z,24.56
2016-08-04T08:09:21.774Z,24.53
2016-08-04T08:10:21.791Z,24.41
2016-08-04T08:11:21.830Z,24.36
2016-08-04T08:12:21.850Z,24.25
2016-08-04T08:13:21.161Z,24.22
2016-08-04T08:14:21.903Z,24.19
2016-08-04T08:15:21.220Z,24.28
2016-08-04T08:16:21.239Z,24.24
2016-08-04T08:17:22.715Z,23.89
2016-08-04T08:18:21.298Z,23.84
2016-08-04T08:19:22.033Z,23.84
2016-08-04T08:20:22.761Z,23.69
2016-08-04T08:22:21.411Z,23.36
2016-08-04T08:23:21.441Z,23.49
2016-08-04T08:24:22.863Z,23.55
2016-08-04T08:25:22.203Z,23.48
2016-08-04T08:26:22.229Z,23.29
2016-08-04T08:27:21.705Z,23.21
2016-08-04T08:28:22.432Z,23.28
2016-08-04T08:29:23.151Z,23.16
2016-08-04T08:30:22.428Z,23.28
2016-08-04T08:31:23.162Z,23.29
2016-08-04T08:32:22.432Z,23.42
2016-08-04T08:33:23.223Z,23.71
2016-08-04T08:34:23.193Z,23.77
2016-08-04T08:35:23.207Z,23.77
2016-08-04T08:37:21.837Z,24.19
2016-08-04T08:38:23.242Z,24.74
2016-08-04T08:39:21.856Z,25.07
2016-08-04T08:40:22.606Z,25.31
2016-08-04T08:41:22.693Z,25.4
2016-08-04T08:42:22.643Z,25.4
2016-08-04T08:43:22.685Z,25.3
2016-08-04T08:44:23.404Z,25.18
2016-08-04T08:45:22.721Z,24.89
2016-08-04T08:46:23.463Z,24.88
2016-08-04T08:47:22.790Z,24.78
2016-08-04T08:48:23.527Z,24.93
2016-08-04T08:49:22.831Z,25
2016-08-04T08:50:22.922Z,24.77
2016-08-04T08:51:23.662Z,24.59
2016-08-04T08:52:23.629Z,24.53
2016-08-04T08:53:22.948Z,24.47
2016-08-04T08:54:22.976Z,24.46
2016-08-04T08:55:23.000Z,24.59
2016-08-04T08:56:23.723Z,24.75
2016-08-04T08:57:23.056Z,24.78
2016-08-04T08:58:23.782Z,24.68
2016-08-04T08:59:23.815Z,24.62
2016-08-04T09:00:23.833Z,24.55
2016-08-04T09:01:23.888Z,24.51
2016-08-04T09:02:23.182Z,24.62
2016-08-04T09:03:23.924Z,24.36
2016-08-04T09:04:23.321Z,24.28
2016-08-04T09:05:22.558Z,24.09
2016-08-04T09:06:23.419Z,24.06
2016-08-04T09:07:23.313Z,24.16
2016-08-04T09:08:24.074Z,24.28
2016-08-04T09:09:23.392Z,24.36
2016-08-04T09:10:22.684Z,24.36
2016-08-04T09:11:24.156Z,24.4
2016-08-04T09:12:24.177Z,24.53
2016-08-04T09:13:24.196Z,24.82
2016-08-04T09:14:24.215Z,24.93
2016-08-04T09:15:23.602Z,24.99
2016-08-04T09:16:22.866Z,24.93
2016-08-04T09:17:23.694Z,24.88
2016-08-04T09:18:22.911Z,24.68
2016-08-04T09:19:24.417Z,24.56
2016-08-04T09:20:23.673Z,24.55
2016-08-04T09:21:23.703Z,24.44
2016-08-04T09:22:24.438Z,24.43
2016-08-04T09:23:23.758Z,24.4
2016-08-04T09:24:23.791Z,24.32
2016-08-04T09:25:24.512Z,24.24
2016-08-04T09:26:23.841Z,24.24
2016-08-04T09:27:23.866Z,24.24
2016-08-04T09:28:23.182Z,24.25
2016-08-04T09:29:23.205Z,24.37
2016-08-04T09:30:23.252Z,24.48
2016-08-04T09:31:24.680Z,24.38
2016-08-04T09:32:24.702Z,24.44
2016-08-04T09:33:23.321Z,24.41
2016-08-04T09:34:24.061Z,24.28
2016-08-04T09:35:23.371Z,24.4
2016-08-04T09:36:24.820Z,24.36
2016-08-04T09:37:24.237Z,24.44
2016-08-04T09:38:24.143Z,24.5
2016-08-04T09:39:24.195Z,24.44
2016-08-04T09:40:24.911Z,24.53
2016-08-04T09:41:24.230Z,24.59
2016-08-04T09:42:23.549Z,24.75
2016-08-04T09:43:24.299Z,24.88
2016-08-04T09:44:23.613Z,25.09
2016-08-04T09:45:24.341Z,24.88
2016-08-04T09:46:25.083Z,24.89
2016-08-04T09:47:25.103Z,25.01
2016-08-04T09:48:25.142Z,25.06
2016-08-04T09:49:24.469Z,25.14
2016-08-04T09:50:24.482Z,25.18
2016-08-04T09:51:25.202Z,25.07
2016-08-04T09:52:25.341Z,24.99
2016-08-04T09:53:25.270Z,24.86
2016-08-04T09:54:25.366Z,24.69
2016-08-04T09:55:25.316Z,24.59
2016-08-04T09:56:24.642Z,24.51
2016-08-04T09:57:24.682Z,24.62
2016-08-04T09:58:23.992Z,24.55
2016-08-04T09:59:25.432Z,24.53
2016-08-04T10:00:24.747Z,24.56
2016-08-04T10:01:24.802Z,24.4
2016-08-04T10:02:24.809Z,24.31
2016-08-04T10:03:24.861Z,24.24
2016-08-04T10:04:25.571Z,24.32
2016-08-04T10:05:24.157Z,24.24
2016-08-04T10:06:25.614Z,24.26
2016-08-04T10:07:24.939Z,24.22
2016-08-04T10:08:25.673Z,24.26
2016-08-04T10:09:24.980Z,24.25
2016-08-04T10:10:25.095Z,24.22
2016-08-04T10:11:25.051Z,24.41
2016-08-04T10:12:25.878Z,24.43
2016-08-04T10:13:24.374Z,24.74
2016-08-04T10:14:25.828Z,24.86
2016-08-04T10:15:25.156Z,25.11
2016-08-04T10:16:25.180Z,25.3
2016-08-04T10:17:24.580Z,25.34
2016-08-04T10:18:24.511Z,25.48
2016-08-04T10:19:24.607Z,25.46
2016-08-04T10:20:25.276Z,25.56
2016-08-04T10:21:25.430Z,25.73
2016-08-04T10:22:26.040Z,25.89
2016-08-04T10:23:26.123Z,26.08
2016-08-04T10:24:26.081Z,26.39
2016-08-04T10:25:26.157Z,26.49
2016-08-04T10:26:25.443Z,26.61
2016-08-04T10:27:26.182Z,26.59
2016-08-04T10:28:26.212Z,26.46
2016-08-04T10:29:25.530Z,26.42
2016-08-04T10:30:26.257Z,26.46
2016-08-04T10:31:26.291Z,26.36
2016-08-04T10:32:25.700Z,26.31
2016-08-04T10:33:26.340Z,26.31
2016-08-04T10:34:26.376Z,26.06
2016-08-04T10:35:25.680Z,25.68
2016-08-04T10:36:25.721Z,25.56
2016-08-04T10:37:25.279Z,25.4
2016-08-04T10:38:26.497Z,25.48
2016-08-04T10:39:25.801Z,25.51
2016-08-04T10:40:25.119Z,25.46
2016-08-04T10:41:25.838Z,25.59
2016-08-04T10:42:25.866Z,25.98
2016-08-04T10:43:25.983Z,26.24
2016-08-04T10:44:25.932Z,26.39
2016-08-04T10:45:26.677Z,26.36
2016-08-04T10:46:26.003Z,26.24
2016-08-04T10:47:26.003Z,26.15
2016-08-04T10:48:26.032Z,26.04
2016-08-04T10:49:25.359Z,25.99
2016-08-04T10:50:26.101Z,26.03
2016-08-04T10:51:26.119Z,26.06
2016-08-04T10:52:27.368Z,26.07
2016-08-04T10:53:26.881Z,26.24
2016-08-04T10:54:26.291Z,26.36
2016-08-04T10:55:26.226Z,26.3
2016-08-04T10:56:26.266Z,26.36
2016-08-04T10:57:26.290Z,26.42
2016-08-04T10:58:27.021Z,26.46
2016-08-04T10:59:27.052Z,26.49
2016-08-04T11:00:27.088Z,26.22
2016-08-04T11:01:27.099Z,26.23
2016-08-04T11:02:27.142Z,26.08
2016-08-04T11:03:26.511Z,26.16
2016-08-04T11:04:27.192Z,25.95
2016-08-04T11:05:25.815Z,25.92
2016-08-04T11:06:25.941Z,25.93
2016-08-04T11:07:28.542Z,26.01
2016-08-04T11:08:26.590Z,26.08
2016-08-04T11:09:26.685Z,26.03
2016-08-04T11:10:25.940Z,26.01
2016-08-04T11:11:26.686Z,25.98
2016-08-04T11:12:27.486Z,25.86
2016-08-04T11:13:27.449Z,25.98
2016-08-04T11:14:26.768Z,26.15
2016-08-04T11:15:27.490Z,26.3
2016-08-04T11:16:26.127Z,26.48
2016-08-04T11:17:26.840Z,26.6
2016-08-04T11:18:26.880Z,26.76
2016-08-04T11:19:26.208Z,26.91
2016-08-04T11:20:26.930Z,26.88
2016-08-04T11:21:28.230Z,26.82
2016-08-04T11:23:27.150Z,26.22
2016-08-04T11:24:27.040Z,26.18
2016-08-04T11:25:27.840Z,26.07
2016-08-04T11:26:26.399Z,26.08
2016-08-04T11:27:26.412Z,26.03
2016-08-04T11:28:27.158Z,26.03
2016-08-04T11:29:27.181Z,26.01
2016-08-04T11:30:26.492Z,25.89
2016-08-04T11:31:27.931Z,25.8
2016-08-04T11:32:27.956Z,25.52
2016-08-04T11:33:26.642Z,25.4
2016-08-04T11:34:27.428Z,25.16
2016-08-04T11:35:27.353Z,24.92
2016-08-04T11:36:26.800Z,24.81
2016-08-04T11:38:27.422Z,24.65
2016-08-04T11:39:28.150Z,24.58
2016-08-04T11:40:27.475Z,24.58
2016-08-04T11:41:28.220Z,24.44
2016-08-04T11:42:27.527Z,24.4
2016-08-04T11:43:26.862Z,24.56
2016-08-04T11:44:28.306Z,24.46
2016-08-04T11:45:27.641Z,24.63
2016-08-04T11:46:28.343Z,24.79
2016-08-04T11:47:27.726Z,25
2016-08-04T11:48:28.410Z,25.11
2016-08-04T11:49:27.016Z,25.18
2016-08-04T11:50:27.752Z,25.3
2016-08-04T11:51:28.757Z,25.33
2016-08-04T11:52:29.540Z,25.41
2016-08-04T11:53:27.840Z,25.34
2016-08-04T11:54:27.160Z,25.36
2016-08-04T11:55:28.730Z,25.26
2016-08-04T11:56:28.624Z,25.34
2016-08-04T11:57:27.230Z,25.43
2016-08-04T11:58:27.961Z,25.39
2016-08-04T11:59:28.699Z,25.4
2016-08-04T12:00:27.310Z,25.52
2016-08-04T12:01:27.356Z,25.52
2016-08-04T12:02:28.076Z,25.52
2016-08-04T12:03:28.812Z,25.62
2016-08-04T12:04:27.426Z,25.56
2016-08-04T12:05:28.213Z,25.58
2016-08-04T12:06:28.191Z,25.67
2016-08-04T12:08:28.240Z,25.92
2016-08-04T12:09:27.558Z,25.85
2016-08-04T12:10:28.289Z,25.86
2016-08-04T12:11:29.042Z,25.77
2016-08-04T12:12:27.648Z,25.93
2016-08-04T12:13:29.090Z,26.15
2016-08-04T12:14:28.391Z,26.29
2016-08-04T12:15:28.416Z,26.42
2016-08-04T12:16:28.463Z,26.52
2016-08-04T12:17:29.194Z,26.46
2016-08-04T12:18:29.248Z,26.49
2016-08-04T12:19:28.557Z,26.44
2016-08-04T12:20:29.265Z,26.37
2016-08-04T12:21:28.580Z,26.31
2016-08-04T12:23:28.949Z,26.39
2016-08-04T12:24:28.851Z,26.42
2016-08-04T12:25:29.239Z,26.39
2016-08-04T12:26:29.436Z,26.33
2016-08-04T12:27:29.484Z,26.16
2016-08-04T12:28:28.841Z,26.07
2016-08-04T12:29:29.526Z,26.07
2016-08-04T12:30:28.849Z,26.06
2016-08-04T12:31:29.018Z,25.93
2016-08-04T12:32:29.010Z,25.99
2016-08-04T12:33:28.969Z,26.04
2016-08-04T12:34:28.941Z,26.07
2016-08-04T12:35:29.673Z,26.04
2016-08-04T12:36:29.852Z,26.15
2016-08-04T12:38:28.439Z,26.24
2016-08-04T12:39:29.070Z,26.23
2016-08-04T12:40:29.160Z,26.22
2016-08-04T12:41:29.838Z,26.26
2016-08-04T12:42:29.166Z,26.03
2016-08-04T12:43:28.504Z,25.81
2016-08-04T12:44:29.225Z,25.68
2016-08-04T12:45:28.539Z,25.62
2016-08-04T12:46:28.566Z,25.62
2016-08-04T12:47:30.030Z,25.58
2016-08-04T12:48:28.621Z,25.59
2016-08-04T12:49:30.180Z,25.7
2016-08-04T12:50:28.663Z,25.74
2016-08-04T12:51:29.410Z,25.77
2016-08-04T12:53:30.255Z,25.91
2016-08-04T12:54:30.188Z,25.91
2016-08-04T12:55:29.601Z,25.77
2016-08-04T12:56:29.548Z,25.77
2016-08-04T12:57:30.270Z,25.86
2016-08-04T12:58:29.695Z,25.98
2016-08-04T12:59:30.354Z,25.91
2016-08-04T13:00:29.808Z,25.91
2016-08-04T13:01:30.388Z,25.85
2016-08-04T13:02:30.418Z,25.85
2016-08-04T13:03:29.742Z,25.78
2016-08-04T13:04:29.769Z,25.89
2016-08-04T13:05:29.800Z,26.03
2016-08-04T13:06:29.829Z,25.92
2016-08-04T13:08:30.591Z,25.81
2016-08-04T13:09:30.597Z,25.73
2016-08-04T13:10:30.640Z,25.71
2016-08-04T13:11:30.664Z,25.66
2016-08-04T13:12:29.986Z,25.62
2016-08-04T13:13:30.007Z,25.58
2016-08-04T13:14:30.029Z,25.61
2016-08-04T13:15:29.368Z,25.58